createdAt,value
2019-05-01T00:01:16.386Z,3.40
2019-05-01T00:04:02.865Z,2.67
2019-05-01T00:06:41.684Z,2.20
2019-05-01T00:09:12.176Z,3.27
2019-05-01T00:11:41.523Z,2.67
2019-05-01T00:14:11.354Z,2.58
2019-05-01T00:16:41.210Z,3.55
2019-05-01T00:19:10.614Z,2.50
2019-05-01T00:21:39.946Z,3.27
2019-05-01T00:24:09.265Z,3.60
2019-05-01T00:26:38.589Z,2.40
2019-05-01T00:29:08.174Z,3.15
2019-05-01T00:31:37.529Z,3.70
2019-05-01T00:34:06.862Z,2.77
2019-05-01T00:36:36.202Z,3.42
2019-05-01T00:39:07.790Z,2.98
2019-05-01T00:41:37.110Z,1.70
2019-05-01T00:44:06.442Z,2.27
2019-05-01T00:46:35.770Z,7.35
2019-05-01T00:49:05.106Z,5.30
2019-05-01T00:51:34.436Z,6.80
2019-05-01T00:54:03.758Z,9.88
2019-05-01T00:56:40.843Z,7.33
2019-05-01T00:59:31.959Z,3.17
2019-05-01T01:02:23.033Z,6.25
2019-05-01T01:04:52.438Z,3.83
2019-05-01T01:07:21.769Z,2.22
2019-05-01T01:09:51.091Z,5.40
2019-05-01T01:12:20.491Z,4.12
2019-05-01T01:14:49.886Z,3.15
2019-05-01T01:17:19.215Z,2.98
2019-05-01T01:19:48.547Z,2.90
2019-05-01T01:22:17.942Z,2.52
2019-05-01T01:24:47.368Z,4.85
2019-05-01T01:27:16.780Z,3.25
2019-05-01T01:29:46.146Z,3.05
2019-05-01T01:32:15.513Z,1.98
2019-05-01T01:34:44.826Z,4.97
2019-05-01T01:37:14.157Z,2.58
2019-05-01T01:39:43.591Z,2.52
2019-05-01T01:42:13.186Z,4.22
2019-05-01T01:45:04.322Z,2.30
2019-05-01T01:47:33.646Z,4.00
2019-05-01T01:50:03.083Z,3.10
2019-05-01T01:52:32.416Z,3.72
2019-05-01T01:55:02.078Z,4.42
2019-05-01T01:57:31.607Z,2.90
2019-05-01T02:00:01.238Z,3.87
2019-05-01T02:02:45.340Z,4.03
2019-05-01T02:05:28.174Z,2.60
2019-05-01T02:07:57.519Z,2.70
2019-05-01T02:10:27.231Z,3.05
2019-05-01T02:12:56.653Z,3.10
2019-05-01T02:15:26.055Z,2.92
2019-05-01T02:17:55.383Z,3.22
2019-05-01T02:20:24.709Z,2.80
2019-05-01T02:22:54.038Z,12.55
2019-05-01T02:25:23.677Z,4.45
2019-05-01T02:28:12.597Z,4.85
2019-05-01T02:30:45.699Z,3.08
2019-05-01T02:33:15.432Z,3.90
2019-05-01T02:35:45.355Z,4.55
2019-05-01T02:38:16.990Z,6.83
2019-05-01T02:40:55.402Z,5.85
2019-05-01T02:43:28.366Z,2.92
2019-05-01T02:45:59.995Z,2.65
2019-05-01T02:48:33.271Z,3.75
2019-05-01T02:51:04.195Z,4.40
2019-05-01T02:53:36.847Z,3.87
2019-05-01T02:56:21.939Z,3.22
2019-05-01T02:58:54.377Z,4.05
2019-05-01T03:01:24.707Z,4.83
2019-05-01T03:03:55.696Z,5.15
2019-05-01T03:06:26.011Z,3.37
2019-05-01T03:08:57.115Z,3.33
2019-05-01T03:11:27.303Z,7.33
2019-05-01T03:13:58.938Z,3.10
2019-05-01T03:16:28.554Z,3.85
2019-05-01T03:19:00.209Z,3.70
2019-05-01T03:21:51.784Z,3.87
2019-05-01T03:24:23.927Z,3.27
2019-05-01T03:26:53.971Z,3.02
2019-05-01T03:29:23.655Z,4.03
2019-05-01T03:32:15.202Z,5.60
2019-05-01T03:34:24.330Z,4.10
2019-05-01T03:36:53.931Z,4.15
2019-05-01T03:39:23.734Z,7.47
2019-05-01T03:41:53.436Z,4.45
2019-05-01T03:44:23.162Z,4.85
2019-05-01T03:46:52.863Z,4.40
2019-05-01T03:49:22.367Z,3.70
2019-05-01T03:51:51.764Z,3.20
2019-05-01T03:54:21.679Z,11.30
2019-05-01T03:56:51.080Z,2.90
2019-05-01T03:59:20.817Z,3.92
2019-05-01T04:02:31.667Z,3.60
2019-05-01T04:04:45.317Z,6.35
2019-05-01T04:07:14.711Z,5.22
2019-05-01T04:09:44.043Z,3.50
2019-05-01T04:12:13.645Z,3.60
2019-05-01T04:14:43.054Z,3.80
2019-05-01T04:17:18.987Z,8.70
2019-05-01T04:19:48.679Z,5.10
2019-05-01T04:22:18.135Z,3.27
2019-05-01T04:24:48.131Z,4.33
2019-05-01T04:27:22.836Z,2.95
2019-05-01T04:29:58.799Z,7.60
2019-05-01T04:32:31.204Z,4.12
2019-05-01T04:35:23.745Z,4.97
2019-05-01T04:37:57.918Z,4.00
2019-05-01T04:40:27.430Z,5.33
2019-05-01T04:42:57.055Z,4.58
2019-05-01T04:45:26.559Z,4.40
2019-05-01T04:47:56.284Z,3.40
2019-05-01T04:50:25.716Z,3.98
2019-05-01T04:52:55.315Z,3.37
2019-05-01T04:55:24.788Z,7.35
2019-05-01T04:57:54.447Z,7.75
2019-05-01T05:00:23.847Z,3.85
2019-05-01T05:03:04.857Z,4.30
2019-05-01T05:05:33.182Z,7.08
2019-05-01T05:08:03.199Z,9.35
2019-05-01T05:10:32.780Z,16.57
2019-05-01T05:13:22.497Z,4.65
2019-05-01T05:16:00.664Z,4.78
2019-05-01T05:18:30.328Z,5.10
2019-05-01T05:21:00.420Z,5.85
2019-05-01T05:23:30.219Z,11.55
2019-05-01T05:26:00.181Z,4.50
2019-05-01T05:28:31.453Z,4.62
2019-05-01T05:31:02.421Z,3.67
2019-05-01T05:33:33.871Z,3.77
2019-05-01T05:36:05.612Z,4.30
2019-05-01T05:38:44.459Z,3.37
2019-05-01T05:41:14.894Z,8.05
2019-05-01T05:43:44.758Z,4.08
2019-05-01T05:46:14.234Z,8.28
2019-05-01T05:48:43.823Z,5.45
2019-05-01T05:51:34.458Z,7.95
2019-05-01T05:54:13.030Z,6.85
2019-05-01T05:56:50.578Z,7.72
2019-05-01T05:59:25.174Z,3.92
2019-05-01T06:02:07.247Z,6.40
2019-05-01T06:04:48.349Z,3.22
2019-05-01T06:07:26.061Z,9.40
2019-05-01T06:10:03.093Z,9.68
2019-05-01T06:12:46.762Z,5.40
2019-05-01T06:15:30.802Z,4.17
2019-05-01T06:18:08.496Z,4.55
2019-05-01T06:21:02.179Z,5.75
2019-05-01T06:23:52.643Z,6.33
2019-05-01T06:26:32.061Z,7.08
2019-05-01T06:29:00.814Z,5.25
2019-05-01T06:31:32.873Z,5.12
2019-05-01T06:34:02.564Z,27.05
2019-05-01T06:36:31.983Z,7.45
2019-05-01T06:39:02.050Z,5.35
2019-05-01T06:41:42.472Z,3.98
2019-05-01T06:44:33.519Z,4.05
2019-05-01T06:47:21.262Z,6.00
2019-05-01T06:50:19.750Z,4.65
2019-05-01T06:52:49.703Z,5.20
2019-05-01T06:55:22.565Z,9.75
2019-05-01T06:57:50.490Z,4.50
2019-05-01T07:00:19.918Z,5.70
2019-05-01T07:02:50.611Z,7.72
2019-05-01T07:05:22.052Z,6.95
2019-05-01T07:07:54.975Z,7.08
2019-05-01T07:10:31.589Z,6.53
2019-05-01T07:12:59.818Z,6.70
2019-05-01T07:15:28.484Z,5.65
2019-05-01T07:17:58.330Z,9.03
2019-05-01T07:20:47.291Z,4.20
2019-05-01T07:23:18.792Z,8.55
2019-05-01T07:25:47.658Z,7.22
2019-05-01T07:28:16.374Z,4.80
2019-05-01T07:30:57.443Z,5.03
2019-05-01T07:33:26.249Z,7.20
2019-05-01T07:35:55.071Z,4.30
2019-05-01T07:38:23.805Z,7.15
2019-05-01T07:40:52.688Z,8.30
2019-05-01T07:43:39.207Z,3.95
2019-05-01T07:46:18.334Z,6.83
2019-05-01T07:48:46.349Z,4.45
2019-05-01T07:51:15.234Z,6.55
2019-05-01T07:53:44.355Z,5.08
2019-05-01T07:56:13.058Z,7.15
2019-05-01T07:58:41.772Z,5.55
2019-05-01T08:01:20.130Z,7.72
2019-05-01T08:03:57.619Z,7.15
2019-05-01T08:06:26.950Z,7.65
2019-05-01T08:08:56.287Z,6.92
2019-05-01T08:11:25.633Z,11.03
2019-05-01T08:14:01.516Z,5.75
2019-05-01T08:16:26.072Z,4.12
2019-05-01T08:19:05.939Z,6.60
2019-05-01T08:22:01.402Z,7.55
2019-05-01T08:24:28.228Z,9.93
2019-05-01T08:26:57.659Z,7.72
2019-05-01T08:29:44.418Z,7.60
2019-05-01T08:32:24.414Z,5.20
2019-05-01T08:34:55.896Z,5.12
2019-05-01T08:37:27.206Z,5.25
2019-05-01T08:39:56.678Z,13.90
2019-05-01T08:42:26.005Z,7.00
2019-05-01T08:45:20.482Z,5.83
2019-05-01T08:48:00.387Z,6.25
2019-05-01T08:50:28.098Z,15.50
2019-05-01T08:52:57.430Z,6.40
2019-05-01T08:55:26.796Z,4.95
2019-05-01T08:57:56.199Z,6.25
2019-05-01T09:00:25.526Z,4.70
2019-05-01T09:03:07.649Z,4.87
2019-05-01T09:05:29.071Z,4.78
2019-05-01T09:07:57.745Z,6.65
2019-05-01T09:10:27.167Z,5.45
2019-05-01T09:12:56.499Z,4.00
2019-05-01T09:15:25.831Z,16.10
2019-05-01T09:17:55.190Z,7.22
2019-05-01T09:20:24.523Z,4.75
2019-05-01T09:22:54.102Z,5.00
2019-05-01T09:25:30.976Z,9.65
2019-05-01T09:28:08.058Z,6.72
2019-05-01T09:30:44.917Z,4.85
2019-05-01T09:33:14.246Z,6.90
2019-05-01T09:35:45.414Z,7.70
2019-05-01T09:38:14.796Z,6.28
2019-05-01T09:40:44.316Z,5.87
2019-05-01T09:43:13.816Z,13.40
2019-05-01T09:45:43.223Z,4.87
2019-05-01T09:48:12.543Z,5.90
2019-05-01T09:50:46.322Z,4.90
2019-05-01T09:53:46.634Z,15.50
2019-05-01T09:56:21.707Z,7.83
2019-05-01T09:58:51.117Z,6.78
2019-05-01T10:01:24.128Z,5.47
2019-05-01T10:03:54.510Z,5.50
2019-05-01T10:06:22.636Z,9.65
2019-05-01T10:08:52.019Z,7.78
2019-05-01T10:11:21.428Z,7.80
2019-05-01T10:13:53.644Z,6.87
2019-05-01T10:16:21.924Z,15.03
2019-05-01T10:18:51.272Z,9.85
2019-05-01T10:21:22.437Z,6.35
2019-05-01T10:23:52.856Z,6.33
2019-05-01T10:26:24.274Z,8.15
2019-05-01T10:29:11.022Z,5.17
2019-05-01T10:32:21.514Z,8.65
2019-05-01T10:34:56.536Z,5.90
2019-05-01T10:37:28.303Z,11.65
2019-05-01T10:39:55.825Z,9.70
2019-05-01T10:42:25.230Z,5.75
2019-05-01T10:44:54.582Z,4.83
2019-05-01T10:47:23.987Z,4.72
2019-05-01T10:49:53.314Z,5.47
2019-05-01T10:52:22.646Z,6.97
2019-05-01T10:54:52.054Z,9.25
2019-05-01T10:57:21.395Z,5.40
2019-05-01T10:59:50.813Z,5.40
2019-05-01T11:02:20.155Z,5.47
2019-05-01T11:04:49.606Z,9.55
2019-05-01T11:07:18.950Z,9.90
2019-05-01T11:09:48.283Z,6.58
2019-05-01T11:12:17.610Z,5.17
2019-05-01T11:14:47.024Z,10.10
2019-05-01T11:17:16.355Z,6.55
2019-05-01T11:19:45.690Z,5.65
2019-05-01T11:22:15.011Z,7.15
2019-05-01T11:24:44.370Z,5.97
2019-05-01T11:27:13.740Z,5.75
2019-05-01T11:29:43.059Z,8.03
2019-05-01T11:32:22.238Z,8.58
2019-05-01T11:35:10.761Z,7.20
2019-05-01T11:37:48.815Z,5.75
2019-05-01T11:40:26.816Z,10.10
2019-05-01T11:42:56.154Z,10.85
2019-05-01T11:45:25.492Z,8.25
2019-05-01T11:47:54.903Z,10.18
2019-05-01T11:50:24.300Z,9.48
2019-05-01T11:52:53.658Z,10.78
2019-05-01T11:55:23.100Z,5.95
2019-05-01T11:57:52.499Z,9.00
2019-05-01T12:00:22.027Z,8.53
2019-05-01T12:02:51.347Z,6.45
2019-05-01T12:05:20.694Z,8.18
2019-05-01T12:07:50.020Z,15.05
2019-05-01T12:10:19.451Z,11.80
2019-05-01T12:12:48.782Z,5.60
2019-05-01T12:15:18.305Z,10.10
2019-05-01T12:17:50.831Z,9.13
2019-05-01T12:20:22.428Z,6.78
2019-05-01T12:22:51.803Z,7.47
2019-05-01T12:25:21.166Z,11.78
2019-05-01T12:27:50.598Z,7.00
2019-05-01T12:30:20.127Z,9.30
2019-05-01T12:32:49.480Z,8.75
2019-05-01T12:35:18.901Z,6.75
2019-05-01T12:37:48.577Z,8.18
2019-05-01T12:40:19.580Z,8.65
2019-05-01T12:42:49.143Z,7.50
2019-05-01T12:45:20.060Z,17.00
2019-05-01T12:47:57.094Z,6.30
2019-05-01T12:50:26.487Z,9.15
2019-05-01T12:53:20.661Z,7.80
2019-05-01T12:56:02.279Z,6.92
2019-05-01T12:58:31.657Z,8.03
2019-05-01T13:01:00.988Z,6.75
2019-05-01T13:03:30.358Z,6.60
2019-05-01T13:05:59.743Z,8.83
2019-05-01T13:08:29.099Z,8.35
2019-05-01T13:10:59.218Z,7.92
2019-05-01T13:13:28.567Z,7.87
2019-05-01T13:15:57.925Z,13.38
2019-05-01T13:18:27.251Z,9.90
2019-05-01T13:20:56.595Z,11.15
2019-05-01T13:23:25.990Z,10.30
2019-05-01T13:25:58.115Z,17.42
2019-05-01T13:28:55.238Z,10.00
2019-05-01T13:31:52.735Z,11.97
2019-05-01T13:34:22.058Z,14.43
2019-05-01T13:37:02.338Z,10.93
2019-05-01T13:39:22.446Z,7.10
2019-05-01T13:41:51.791Z,9.80
2019-05-01T13:44:21.117Z,8.53
2019-05-01T13:46:50.453Z,20.85
2019-05-01T13:49:19.829Z,8.48
2019-05-01T13:51:49.154Z,8.40
2019-05-01T13:54:18.502Z,9.95
2019-05-01T13:56:47.892Z,10.55
2019-05-01T13:59:17.407Z,14.75
2019-05-01T14:01:46.838Z,9.40
2019-05-01T14:04:16.680Z,18.92
2019-05-01T14:06:46.089Z,26.95
2019-05-01T14:09:17.089Z,9.55
2019-05-01T14:11:46.491Z,13.45
2019-05-01T14:14:15.850Z,9.08
2019-05-01T14:16:45.175Z,8.03
2019-05-01T14:19:14.518Z,8.35
2019-05-01T14:21:49.926Z,9.40
2019-05-01T14:24:27.283Z,10.38
2019-05-01T14:26:56.687Z,11.78
2019-05-01T14:29:26.014Z,10.05
2019-05-01T14:31:55.351Z,8.25
2019-05-01T14:34:24.688Z,10.55
2019-05-01T14:36:54.039Z,7.33
2019-05-01T14:39:23.362Z,8.78
2019-05-01T14:41:52.687Z,8.23
2019-05-01T14:44:22.019Z,15.15
2019-05-01T14:46:51.363Z,12.43
2019-05-01T14:49:20.735Z,8.98
2019-05-01T14:51:50.067Z,7.55
2019-05-01T14:54:19.391Z,9.20
2019-05-01T14:56:48.753Z,18.57
2019-05-01T14:59:18.150Z,8.45
2019-05-01T15:01:47.492Z,7.33
2019-05-01T15:04:16.878Z,8.23
2019-05-01T15:06:46.310Z,13.08
2019-05-01T15:09:15.672Z,12.03
2019-05-01T15:11:45.570Z,11.70
2019-05-01T15:14:39.522Z,8.95
2019-05-01T15:17:13.920Z,5.70
2019-05-01T15:19:47.670Z,7.95
2019-05-01T15:22:17.018Z,16.55
2019-05-01T15:24:46.351Z,11.60
2019-05-01T15:27:15.690Z,7.75
2019-05-01T15:29:45.016Z,6.87
2019-05-01T15:32:14.410Z,9.45
2019-05-01T15:34:43.807Z,5.25
2019-05-01T15:37:13.158Z,7.53
2019-05-01T15:39:47.489Z,7.15
2019-05-01T15:42:35.828Z,8.93
2019-05-01T15:45:05.946Z,7.45
2019-05-01T15:47:35.279Z,6.30
2019-05-01T15:50:05.490Z,9.65
2019-05-01T15:52:34.834Z,9.78
2019-05-01T15:55:04.414Z,6.33
2019-05-01T15:57:33.743Z,9.40
2019-05-01T16:00:03.471Z,7.83
2019-05-01T16:02:32.786Z,6.00
2019-05-01T16:05:02.124Z,6.28
2019-05-01T16:07:31.467Z,11.63
2019-05-01T16:10:00.820Z,30.35
2019-05-01T16:12:38.195Z,7.15
2019-05-01T16:15:29.711Z,5.15
2019-05-01T16:17:59.467Z,9.05
2019-05-01T16:20:28.811Z,6.97
2019-05-01T16:22:58.174Z,9.23
2019-05-01T16:25:27.500Z,5.65
2019-05-01T16:27:56.831Z,6.75
2019-05-01T16:30:27.174Z,5.50
2019-05-01T16:32:56.504Z,8.55
2019-05-01T16:35:25.843Z,6.37
2019-05-01T16:37:58.030Z,8.53
2019-05-01T16:40:52.181Z,9.75
2019-05-01T16:43:21.585Z,7.25
2019-05-01T16:45:50.988Z,6.83
2019-05-01T16:48:20.317Z,6.05
2019-05-01T16:50:49.649Z,6.75
2019-05-01T16:53:18.999Z,6.70
2019-05-01T16:55:48.334Z,5.97
2019-05-01T16:58:17.958Z,7.85
2019-05-01T17:01:03.786Z,7.42
2019-05-01T17:03:44.265Z,5.22
2019-05-01T17:06:38.642Z,14.05
2019-05-01T17:09:27.466Z,18.10
2019-05-01T17:11:56.877Z,18.40
2019-05-01T17:14:26.206Z,8.28
2019-05-01T17:16:55.675Z,7.92
2019-05-01T17:19:25.121Z,9.18
2019-05-01T17:21:54.531Z,10.05
2019-05-01T17:24:23.871Z,11.50
2019-05-01T17:26:53.195Z,10.48
2019-05-01T17:29:22.516Z,8.90
2019-05-01T17:31:51.835Z,8.35
2019-05-01T17:34:21.168Z,7.00
2019-05-01T17:36:50.526Z,8.18
2019-05-01T17:39:20.671Z,13.62
2019-05-01T17:41:50.011Z,10.15
2019-05-01T17:44:20.237Z,11.30
2019-05-01T17:46:50.382Z,7.83
2019-05-01T17:49:19.779Z,9.10
2019-05-01T17:51:49.114Z,7.87
2019-05-01T17:54:18.445Z,7.15
2019-05-01T17:56:48.492Z,8.43
2019-05-01T17:59:18.858Z,11.25
2019-05-01T18:02:11.499Z,7.78
2019-05-01T18:05:08.660Z,16.25
2019-05-01T18:07:38.047Z,8.80
2019-05-01T18:10:07.502Z,9.95
2019-05-01T18:12:36.937Z,8.80
2019-05-01T18:15:06.698Z,9.78
2019-05-01T18:17:36.136Z,14.83
2019-05-01T18:20:05.594Z,14.18
2019-05-01T18:22:50.211Z,20.05
2019-05-01T18:25:34.990Z,23.15
2019-05-01T18:28:11.471Z,10.58
2019-05-01T18:30:42.012Z,8.83
2019-05-01T18:33:11.598Z,7.90
2019-05-01T18:35:44.974Z,9.65
2019-05-01T18:38:21.507Z,9.70
2019-05-01T18:40:58.163Z,9.93
2019-05-01T18:43:32.287Z,8.05
2019-05-01T18:45:59.339Z,11.38
2019-05-01T18:48:28.674Z,7.85
2019-05-01T18:50:58.167Z,9.85
2019-05-01T18:53:27.521Z,9.58
2019-05-01T18:56:01.318Z,11.60
2019-05-01T18:58:28.035Z,15.60
2019-05-01T19:00:57.447Z,9.65
2019-05-01T19:03:26.910Z,8.75
2019-05-01T19:05:56.430Z,11.63
2019-05-01T19:08:25.836Z,9.18
2019-05-01T19:10:55.559Z,8.63
2019-05-01T19:13:25.189Z,14.87
2019-05-01T19:15:54.518Z,7.33
2019-05-01T19:18:23.841Z,8.68
2019-05-01T19:20:59.767Z,10.85
2019-05-01T19:23:27.980Z,17.25
2019-05-01T19:25:56.446Z,9.45
2019-05-01T19:28:27.059Z,13.05
2019-05-01T19:30:56.822Z,9.20
2019-05-01T19:33:26.259Z,13.53
2019-05-01T19:35:55.622Z,12.75
2019-05-01T19:38:29.514Z,12.95
2019-05-01T19:40:56.487Z,11.12
2019-05-01T19:43:25.837Z,8.98
2019-05-01T19:45:55.437Z,12.90
2019-05-01T19:48:24.850Z,11.55
2019-05-01T19:50:54.257Z,14.50
2019-05-01T19:53:23.671Z,11.63
2019-05-01T19:55:53.100Z,11.70
2019-05-01T19:58:22.456Z,11.55
2019-05-01T20:00:53.904Z,11.25
2019-05-01T20:03:23.411Z,13.05
2019-05-01T20:05:52.846Z,13.55
2019-05-01T20:08:22.274Z,12.30
2019-05-01T20:10:51.605Z,11.85
2019-05-01T20:13:21.018Z,20.12
2019-05-01T20:15:50.423Z,16.60
2019-05-01T20:18:19.830Z,14.20
2019-05-01T20:20:49.182Z,13.98
2019-05-01T20:23:18.510Z,18.48
2019-05-01T20:25:51.086Z,17.80
2019-05-01T20:28:20.038Z,17.50
2019-05-01T20:30:49.955Z,15.95
2019-05-01T20:33:19.369Z,30.50
2019-05-01T20:35:48.778Z,19.90
2019-05-01T20:38:18.106Z,27.00
2019-05-01T20:40:47.438Z,16.45
2019-05-01T20:43:16.776Z,18.85
2019-05-01T20:45:49.356Z,24.23
2019-05-01T20:48:18.666Z,19.80
2019-05-01T20:50:48.274Z,15.08
2019-05-01T20:53:17.614Z,18.95
2019-05-01T20:55:54.084Z,15.35
2019-05-01T20:58:23.413Z,14.07
2019-05-01T21:00:56.831Z,19.87
2019-05-01T21:03:26.181Z,15.72
2019-05-01T21:06:07.723Z,15.40
2019-05-01T21:08:59.938Z,19.07
2019-05-01T21:11:33.616Z,22.98
2019-05-01T21:14:16.955Z,19.00
2019-05-01T21:16:37.889Z,16.57
2019-05-01T21:19:05.173Z,14.25
2019-05-01T21:21:34.506Z,13.08
2019-05-01T21:24:03.957Z,13.00
2019-05-01T21:26:33.617Z,13.60
2019-05-01T21:29:04.077Z,19.70
2019-05-01T21:31:34.138Z,16.25
2019-05-01T21:34:04.216Z,13.75
2019-05-01T21:36:33.774Z,13.95
2019-05-01T21:39:03.206Z,16.65
2019-05-01T21:41:32.920Z,17.85
2019-05-01T21:44:03.129Z,15.15
2019-05-01T21:46:34.072Z,12.40
2019-05-01T21:49:03.540Z,12.75
2019-05-01T21:51:32.933Z,22.80
2019-05-01T21:54:03.271Z,19.30
2019-05-01T21:56:32.686Z,13.48
2019-05-01T21:59:06.803Z,16.42
2019-05-01T22:01:34.788Z,10.53
2019-05-01T22:04:04.386Z,11.10
2019-05-01T22:06:33.802Z,12.53
2019-05-01T22:09:04.731Z,12.78
2019-05-01T22:11:37.759Z,14.18
2019-05-01T22:14:07.016Z,12.13
2019-05-01T22:16:36.419Z,8.75
2019-05-01T22:19:17.808Z,17.62
2019-05-01T22:22:11.826Z,12.60
2019-05-01T22:25:12.290Z,11.22
2019-05-01T22:27:54.698Z,15.28
2019-05-01T22:30:34.766Z,13.32
2019-05-01T22:33:04.201Z,15.32
2019-05-01T22:35:52.874Z,16.52
2019-05-01T22:38:22.216Z,11.30
2019-05-01T22:41:06.655Z,14.47
2019-05-01T22:43:30.837Z,25.48
2019-05-01T22:46:01.732Z,16.93
2019-05-01T22:48:31.552Z,20.10
2019-05-01T22:51:07.075Z,16.07
2019-05-01T22:53:36.409Z,17.32
2019-05-01T22:56:05.829Z,14.55
2019-05-01T22:58:35.227Z,12.95
2019-05-01T23:01:05.137Z,11.35
2019-05-01T23:03:43.110Z,15.43
2019-05-01T23:06:12.643Z,16.97
2019-05-01T23:08:42.153Z,14.73
2019-05-01T23:11:19.893Z,13.05
2019-05-01T23:13:43.611Z,14.93
2019-05-01T23:16:13.889Z,19.77
2019-05-01T23:18:47.054Z,11.20
2019-05-01T23:21:15.959Z,11.35
2019-05-01T23:23:45.566Z,17.25
2019-05-01T23:26:16.728Z,10.90
2019-05-01T23:28:46.008Z,9.80
2019-05-01T23:31:15.338Z,12.10
2019-05-01T23:33:45.636Z,18.62
2019-05-01T23:36:23.242Z,13.22
2019-05-01T23:38:46.742Z,7.10
2019-05-01T23:41:16.083Z,13.20
2019-05-01T23:43:45.486Z,10.38
2019-05-01T23:46:14.826Z,16.73
2019-05-01T23:48:44.571Z,11.38
2019-05-01T23:51:13.971Z,13.68
2019-05-01T23:53:44.339Z,11.05
2019-05-01T23:56:14.348Z,15.65
2019-05-01T23:58:43.670Z,8.25
